Rechercher aéroport 
image banner adimage banner ad
image banner ad

DABC - Constantine / Mohamed Boudiaf

Situé à Constantine, Algeria

ICAO - DABC, IATA - CZL

Données fournies par Airmate  

Information générale

Coordonnées: N36°17'7" E6°37'9"
Élévation : 2316 feet MSL.
 
Voir autres Aéroports à Constantine Province

Données opérationnelles

Accessible au public
Heure actuelle UTC:
Heure actuelle locale:
Météo
METAR: DABC 230700Z VRB02KT 8000 FEW030 BKN200 18/17 Q1018
TAF: TAF DABC 230500Z 2306/2406 25008KT 9999 FEW033 SCT100 PROB40 TEMPO 2306/2308 2000 BR BKN010 PROB40 TEMPO 2312/2322 FEW026CB
Voir NOTAMs / SUP AIP / TFR affectant cet aéroport [VIEW]
Fréquences de communication: [VIEW]

Pistes:

Identifiant RWYQFULongueur (ft)Largeur (ft)SurfaceLDA (ft)
16159°9843148
34339°9843148
13136°7874148
31316°7874148

Coordonnées de l'aéroport

Adresse: Constantine Algeria

Vue satellite de DABC